createdAt,value
2023-03-12T00:01:59.465Z,100612.78
2023-03-12T00:04:26.228Z,100613.66
2023-03-12T00:06:52.672Z,100610.78
2023-03-12T00:09:19.638Z,100602.66
2023-03-12T00:11:46.010Z,100607.06
2023-03-12T00:14:12.513Z,100607.06
2023-03-12T00:16:38.900Z,100591.81
2023-03-12T00:19:05.396Z,100592.81
2023-03-12T00:21:31.886Z,100595.50
2023-03-12T00:23:58.402Z,100598.06
2023-03-12T00:26:24.837Z,100589.94
2023-03-12T00:28:51.397Z,100593.66
2023-03-12T00:31:23.369Z,100594.50
2023-03-12T00:33:50.387Z,100600.59
2023-03-12T00:36:18.383Z,100602.00
2023-03-12T00:38:44.801Z,100603.53
2023-03-12T00:41:11.261Z,100601.50
2023-03-12T00:43:37.667Z,100596.59
2023-03-12T00:46:04.427Z,100594.59
2023-03-12T00:48:30.851Z,100592.56
2023-03-12T00:50:57.304Z,100595.94
2023-03-12T00:53:23.696Z,100593.78
2023-03-12T00:55:50.241Z,100584.44
2023-03-12T00:58:16.708Z,100580.72
2023-03-12T01:00:43.197Z,100580.38
2023-03-12T01:03:09.683Z,100578.34
2023-03-12T01:05:38.072Z,100572.78
2023-03-12T01:08:05.398Z,100577.34
2023-03-12T01:10:31.842Z,100575.31
2023-03-12T01:12:58.533Z,100568.88
2023-03-12T01:15:25.384Z,100567.16
2023-03-12T01:17:51.805Z,100564.28
2023-03-12T01:20:18.334Z,100570.56
2023-03-12T01:22:44.797Z,100569.56
2023-03-12T01:25:12.267Z,100562.25
2023-03-12T01:27:38.703Z,100562.25
2023-03-12T01:30:05.750Z,100559.38
2023-03-12T01:32:32.194Z,100553.78
2023-03-12T01:35:00.205Z,100566.34
2023-03-12T01:37:27.435Z,100568.88
2023-03-12T01:39:53.872Z,100567.88
2023-03-12T01:42:20.398Z,100561.41
2023-03-12T01:44:57.692Z,100564.97
2023-03-12T01:47:27.930Z,100566.69
2023-03-12T01:49:55.973Z,100564.50
2023-03-12T01:52:27.005Z,100561.63
2023-03-12T01:54:59.711Z,100548.88
2023-03-12T01:57:36.480Z,100549.72
2023-03-12T02:00:11.950Z,100550.56
2023-03-12T02:02:39.131Z,100538.00
2023-03-12T02:05:28.364Z,100539.06
2023-03-12T02:07:55.107Z,100536.16
2023-03-12T02:10:22.720Z,100527.50
2023-03-12T02:12:49.348Z,100525.66
2023-03-12T02:15:15.794Z,100523.78
2023-03-12T02:17:42.260Z,100522.94
2023-03-12T02:20:21.114Z,100520.38
2023-03-12T02:23:09.185Z,100511.72
2023-03-12T02:25:49.631Z,100505.78
2023-03-12T02:28:18.478Z,100511.22
2023-03-12T02:30:48.282Z,100506.47
2023-03-12T02:33:15.936Z,100505.63
2023-03-12T02:35:42.548Z,100497.47
2023-03-12T02:38:45.853Z,100491.03
2023-03-12T02:41:21.194Z,100484.41
2023-03-12T02:43:59.137Z,100477.78
2023-03-12T02:46:26.751Z,100478.66
2023-03-12T02:48:53.875Z,100479.34
2023-03-12T02:51:20.248Z,100481.72
2023-03-12T02:53:46.839Z,100481.53
2023-03-12T02:56:13.302Z,100480.34
2023-03-12T02:58:39.692Z,100476.59
2023-03-12T03:01:06.197Z,100476.59
2023-03-12T03:03:32.669Z,100474.59
2023-03-12T03:05:59.196Z,100480.88
2023-03-12T03:08:25.645Z,100481.72
2023-03-12T03:10:52.652Z,100489.69
2023-03-12T03:13:19.058Z,100484.75
2023-03-12T03:15:45.566Z,100479.16
2023-03-12T03:18:12.142Z,100476.59
2023-03-12T03:20:38.598Z,100471.88
2023-03-12T03:23:05.101Z,100469.31
2023-03-12T03:25:33.797Z,100465.41
2023-03-12T03:28:00.224Z,100466.44
2023-03-12T03:30:26.677Z,100465.25
2023-03-12T03:32:53.152Z,100462.69
2023-03-12T03:35:19.833Z,100471.88
2023-03-12T03:37:46.295Z,100458.97
2023-03-12T03:40:12.914Z,100464.88
2023-03-12T03:42:40.570Z,100473.53
2023-03-12T03:45:08.229Z,100476.25
2023-03-12T03:47:34.984Z,100491.19
2023-03-12T03:50:01.446Z,100498.00
2023-03-12T03:52:27.850Z,100492.91
2023-03-12T03:54:54.385Z,100483.38
2023-03-12T03:57:20.824Z,100472.19
2023-03-12T03:59:47.271Z,100477.25
2023-03-12T04:02:13.699Z,100468.09
2023-03-12T04:04:40.089Z,100465.69
2023-03-12T04:07:06.581Z,100461.97
2023-03-12T04:09:33.210Z,100464.16
2023-03-12T04:11:59.632Z,100463.63
2023-03-12T04:14:26.055Z,100468.03
2023-03-12T04:16:52.495Z,100458.88
2023-03-12T04:19:18.901Z,100458.50
2023-03-12T04:21:45.389Z,100448.34
2023-03-12T04:24:16.530Z,100449.00
2023-03-12T04:26:43.483Z,100441.50
2023-03-12T04:29:09.911Z,100437.75
2023-03-12T04:31:36.386Z,100437.41
2023-03-12T04:34:02.870Z,100436.22
2023-03-12T04:36:29.349Z,100433.31
2023-03-12T04:38:56.988Z,100434.38
2023-03-12T04:41:23.492Z,100437.09
2023-03-12T04:43:49.849Z,100431.97
2023-03-12T04:46:16.387Z,100434.03
2023-03-12T04:48:42.890Z,100427.75
2023-03-12T04:51:09.352Z,100432.31
2023-03-12T04:53:36.154Z,100426.88
2023-03-12T04:56:02.719Z,100431.47
2023-03-12T04:58:29.165Z,100417.88
2023-03-12T05:00:55.710Z,100425.19
2023-03-12T05:03:22.226Z,100421.66
2023-03-12T05:05:48.661Z,100423.00
2023-03-12T05:08:15.108Z,100423.38
2023-03-12T05:10:45.131Z,100413.19
2023-03-12T05:13:20.679Z,100414.38
2023-03-12T05:15:48.503Z,100414.91
2023-03-12T05:18:14.964Z,100413.91
2023-03-12T05:20:41.492Z,100410.16
2023-03-12T05:23:08.116Z,100409.97
2023-03-12T05:25:37.963Z,100408.25
2023-03-12T05:28:04.429Z,100401.47
2023-03-12T05:30:30.827Z,100391.16
2023-03-12T05:32:57.322Z,100392.34
2023-03-12T05:35:23.799Z,100400.69
2023-03-12T05:37:50.358Z,100389.97
2023-03-12T05:40:16.765Z,100395.09
2023-03-12T05:42:43.124Z,100399.00
2023-03-12T05:45:10.016Z,100402.56
2023-03-12T05:47:36.480Z,100393.41
2023-03-12T05:50:02.936Z,100393.41
2023-03-12T05:52:29.341Z,100388.97
2023-03-12T05:54:55.861Z,100386.75
2023-03-12T05:57:22.387Z,100383.38
2023-03-12T05:59:48.756Z,100385.72
2023-03-12T06:02:15.184Z,100384.88
2023-03-12T06:04:41.585Z,100379.25
2023-03-12T06:07:07.989Z,100379.44
2023-03-12T06:09:35.706Z,100365.00
2023-03-12T06:12:02.138Z,100354.28
2023-03-12T06:14:28.702Z,100353.97
2023-03-12T06:16:55.158Z,100368.88
2023-03-12T06:19:21.657Z,100371.59
2023-03-12T06:21:48.074Z,100385.19
2023-03-12T06:24:14.483Z,100374.84
2023-03-12T06:26:41.456Z,100374.84
2023-03-12T06:29:07.909Z,100369.72
2023-03-12T06:31:37.232Z,100371.06
2023-03-12T06:34:05.275Z,100354.97
2023-03-12T06:36:31.722Z,100359.34
2023-03-12T06:38:58.101Z,100358.34
2023-03-12T06:41:24.475Z,100372.63
2023-03-12T06:43:51.018Z,100371.91
2023-03-12T06:46:21.653Z,100367.66
2023-03-12T06:48:48.106Z,100375.81
2023-03-12T06:51:16.282Z,100368.50
2023-03-12T06:53:42.843Z,100370.19
2023-03-12T06:56:10.157Z,100370.19
2023-03-12T06:58:36.712Z,100369.84
2023-03-12T07:01:04.022Z,100378.19
2023-03-12T07:03:30.514Z,100384.28
2023-03-12T07:05:57.782Z,100389.06
2023-03-12T07:08:24.672Z,100399.06
2023-03-12T07:10:51.125Z,100405.53
2023-03-12T07:13:17.556Z,100412.66
2023-03-12T07:15:46.421Z,100404.50
2023-03-12T07:18:12.951Z,100393.13
2023-03-12T07:20:41.874Z,100389.53
2023-03-12T07:23:09.059Z,100400.06
2023-03-12T07:25:37.459Z,100393.25
2023-03-12T07:28:04.211Z,100392.72
2023-03-12T07:30:33.349Z,100395.75
2023-03-12T07:33:03.914Z,100389.41
2023-03-12T07:35:31.321Z,100393.47
2023-03-12T07:37:58.308Z,100392.47
2023-03-12T07:40:25.598Z,100393.13
2023-03-12T07:42:52.523Z,100388.38
2023-03-12T07:45:20.001Z,100388.81
2023-03-12T07:47:47.518Z,100390.66
2023-03-12T07:50:15.162Z,100401.16
2023-03-12T07:52:41.877Z,100399.94
2023-03-12T07:55:09.362Z,100397.59
2023-03-12T07:57:36.454Z,100399.47
2023-03-12T08:00:07.266Z,100396.91
2023-03-12T08:02:34.758Z,100391.97
2023-03-12T08:05:01.294Z,100395.22
2023-03-12T08:07:32.215Z,100396.91
2023-03-12T08:09:59.593Z,100397.44
2023-03-12T08:12:26.257Z,100393.00
2023-03-12T08:14:52.709Z,100397.06
2023-03-12T08:17:19.221Z,100382.06
2023-03-12T08:19:45.690Z,100381.34
2023-03-12T08:22:12.125Z,100383.31
2023-03-12T08:24:38.489Z,100373.78
2023-03-12T08:27:04.955Z,100372.00
2023-03-12T08:29:33.517Z,100371.31
2023-03-12T08:32:05.411Z,100364.00
2023-03-12T08:34:35.170Z,100377.50
2023-03-12T08:37:02.937Z,100374.06
2023-03-12T08:39:29.583Z,100382.13
2023-03-12T08:41:56.056Z,100370.56
2023-03-12T08:44:23.004Z,100379.03
2023-03-12T08:46:49.653Z,100377.81
2023-03-12T08:49:16.161Z,100365.78
2023-03-12T08:51:42.546Z,100374.91
2023-03-12T08:54:09.472Z,100369.47
2023-03-12T08:56:41.908Z,100380.66
2023-03-12T08:59:09.811Z,100380.94
2023-03-12T09:01:36.313Z,100368.66
2023-03-12T09:04:04.200Z,100365.88
2023-03-12T09:06:30.715Z,100369.88
2023-03-12T09:08:57.650Z,100360.13
2023-03-12T09:11:24.164Z,100353.38
2023-03-12T09:14:18.683Z,100350.56
2023-03-12T09:16:36.963Z,100353.13
2023-03-12T09:19:04.158Z,100350.66
2023-03-12T09:21:30.827Z,100336.09
2023-03-12T09:23:57.673Z,100343.81
2023-03-12T09:26:24.167Z,100352.19
2023-03-12T09:28:50.912Z,100347.91
2023-03-12T09:31:17.405Z,100361.06
2023-03-12T09:33:43.882Z,100352.75
2023-03-12T09:36:10.480Z,100352.75
2023-03-12T09:38:37.917Z,100347.88
2023-03-12T09:41:06.184Z,100356.06
2023-03-12T09:43:38.825Z,100351.91
2023-03-12T09:46:12.708Z,100352.00
2023-03-12T09:48:39.557Z,100353.03
2023-03-12T09:51:14.130Z,100346.63
2023-03-12T09:53:46.990Z,100350.06
2023-03-12T09:56:18.388Z,100350.22
2023-03-12T09:58:48.321Z,100335.59
2023-03-12T10:01:36.858Z,100343.72
2023-03-12T10:04:18.605Z,100350.34
2023-03-12T10:07:14.342Z,100345.63
2023-03-12T10:10:08.836Z,100340.03
2023-03-12T10:12:58.119Z,100330.84
2023-03-12T10:15:52.890Z,100334.06
2023-03-12T10:18:54.878Z,100331.63
2023-03-12T10:21:42.951Z,100335.09
2023-03-12T10:24:25.285Z,100324.03
2023-03-12T10:26:55.669Z,100321.44
2023-03-12T10:29:26.593Z,100331.97
2023-03-12T10:32:11.400Z,100324.66
2023-03-12T10:34:52.635Z,100329.94
2023-03-12T10:37:24.773Z,100329.78
2023-03-12T10:39:52.743Z,100335.50
2023-03-12T10:42:30.061Z,100336.31
2023-03-12T10:45:01.253Z,100336.75
2023-03-12T10:47:44.735Z,100330.91
2023-03-12T10:50:17.809Z,100325.88
2023-03-12T10:52:46.236Z,100340.44
2023-03-12T10:55:20.859Z,100322.13
2023-03-12T10:57:47.606Z,100326.16
2023-03-12T11:00:29.445Z,100328.47
2023-03-12T11:03:06.101Z,100321.31
2023-03-12T11:05:36.293Z,100325.09
2023-03-12T11:08:04.277Z,100312.22
2023-03-12T11:10:45.709Z,100315.41
2023-03-12T11:13:22.987Z,100313.69
2023-03-12T11:15:51.046Z,100305.88
2023-03-12T11:18:28.186Z,100302.72
2023-03-12T11:21:09.764Z,100297.59
2023-03-12T11:23:39.276Z,100303.25
2023-03-12T11:26:15.868Z,100299.19
2023-03-12T11:28:46.438Z,100288.16
2023-03-12T11:31:22.177Z,100288.03
2023-03-12T11:33:49.532Z,100285.50
2023-03-12T11:36:37.008Z,100278.81
2023-03-12T11:39:25.333Z,100268.41
2023-03-12T11:42:08.215Z,100259.81
2023-03-12T11:44:42.208Z,100258.34
2023-03-12T11:47:35.700Z,100251.41
2023-03-12T11:50:10.892Z,100250.03
2023-03-12T11:52:54.947Z,100255.06
2023-03-12T11:55:43.774Z,100266.09
2023-03-12T11:58:28.824Z,100263.16
2023-03-12T12:01:44.275Z,100264.09
2023-03-12T12:04:28.739Z,100250.94
2023-03-12T12:07:41.349Z,100239.25
2023-03-12T12:10:28.760Z,100232.13
2023-03-12T12:13:32.677Z,100232.56
2023-03-12T12:16:02.186Z,100227.69
2023-03-12T12:18:47.152Z,100233.56
2023-03-12T12:21:33.667Z,100240.56
2023-03-12T12:24:18.653Z,100237.47
2023-03-12T12:27:09.715Z,100236.25
2023-03-12T12:30:07.106Z,100233.56
2023-03-12T12:32:54.784Z,100236.13
2023-03-12T12:35:35.497Z,100220.88
2023-03-12T12:38:30.865Z,100223.44
2023-03-12T12:41:09.923Z,100221.97
2023-03-12T12:43:42.037Z,100220.53
2023-03-12T12:46:22.626Z,100221.00
2023-03-12T12:48:56.223Z,100217.00
2023-03-12T12:51:27.319Z,100234.28
2023-03-12T12:53:59.722Z,100227.09
2023-03-12T12:56:33.022Z,100247.50
2023-03-12T12:59:14.307Z,100250.97
2023-03-12T13:01:41.332Z,100231.25
2023-03-12T13:04:17.004Z,100219.31
2023-03-12T13:07:03.124Z,100214.81
2023-03-12T13:09:52.213Z,100204.78
2023-03-12T13:12:32.690Z,100204.31
2023-03-12T13:15:01.363Z,100205.84
2023-03-12T13:17:35.687Z,100199.22
2023-03-12T13:20:11.231Z,100207.75
2023-03-12T13:22:37.624Z,100207.91
2023-03-12T13:25:03.961Z,100229.00
2023-03-12T13:27:36.429Z,100213.56
2023-03-12T13:30:27.940Z,100234.94
2023-03-12T13:32:57.463Z,100236.59
2023-03-12T13:35:23.839Z,100234.31
2023-03-12T13:37:53.180Z,100229.53
2023-03-12T13:40:28.875Z,100235.44
2023-03-12T13:43:37.038Z,100234.59
2023-03-12T13:46:07.477Z,100230.22
2023-03-12T13:48:35.616Z,100219.16
2023-03-12T13:51:12.161Z,100213.75
2023-03-12T13:53:40.734Z,100219.06
2023-03-12T13:56:12.188Z,100222.16
2023-03-12T13:58:50.165Z,100213.13
2023-03-12T14:01:21.834Z,100222.00
2023-03-12T14:03:57.931Z,100222.63
2023-03-12T14:06:28.713Z,100220.69
2023-03-12T14:09:04.436Z,100219.94
2023-03-12T14:11:31.027Z,100217.53
2023-03-12T14:14:09.851Z,100222.22
2023-03-12T14:16:42.512Z,100208.97
2023-03-12T14:19:19.638Z,100201.03
2023-03-12T14:21:49.262Z,100192.50
2023-03-12T14:24:23.361Z,100195.25
2023-03-12T14:26:50.673Z,100197.69
2023-03-12T14:29:31.385Z,100194.47
2023-03-12T14:32:03.658Z,100210.38
2023-03-12T14:34:43.069Z,100206.97
2023-03-12T14:37:16.519Z,100213.28
2023-03-12T14:39:55.526Z,100219.53
2023-03-12T14:42:27.351Z,100216.63
2023-03-12T14:44:57.815Z,100221.06
2023-03-12T14:47:24.285Z,100216.03
2023-03-12T14:49:50.760Z,100205.09
2023-03-12T14:52:27.690Z,100210.59
2023-03-12T14:55:00.831Z,100202.16
2023-03-12T14:57:27.456Z,100209.66
2023-03-12T14:59:58.966Z,100208.53
2023-03-12T15:02:26.427Z,100201.44
2023-03-12T15:04:56.079Z,100206.75
2023-03-12T15:07:28.837Z,100209.00
2023-03-12T15:09:55.326Z,100204.31
2023-03-12T15:12:25.213Z,100207.44
2023-03-12T15:15:03.319Z,100201.63
2023-03-12T15:17:31.499Z,100196.97
2023-03-12T15:19:58.581Z,100200.81
2023-03-12T15:22:27.780Z,100204.91
2023-03-12T15:24:54.593Z,100203.25
2023-03-12T15:27:25.661Z,100208.16
2023-03-12T15:29:52.573Z,100202.09
2023-03-12T15:32:21.133Z,100204.25
2023-03-12T15:34:48.057Z,100215.53
2023-03-12T15:37:37.914Z,100228.13
2023-03-12T15:40:22.002Z,100240.13
2023-03-12T15:42:49.325Z,100249.38
2023-03-12T15:45:22.580Z,100230.47
2023-03-12T15:47:51.032Z,100231.28
2023-03-12T15:50:30.353Z,100228.72
2023-03-12T15:53:03.124Z,100219.94
2023-03-12T15:55:34.702Z,100219.34
2023-03-12T15:58:01.505Z,100226.47
2023-03-12T16:00:35.636Z,100226.47
2023-03-12T16:03:06.151Z,100229.22
2023-03-12T16:05:35.805Z,100227.69
2023-03-12T16:08:20.560Z,100231.53
2023-03-12T16:10:49.128Z,100232.88
2023-03-12T16:13:18.468Z,100243.94
2023-03-12T16:15:47.341Z,100244.78
2023-03-12T16:18:17.478Z,100238.25
2023-03-12T16:20:45.189Z,100239.09
2023-03-12T16:23:12.610Z,100239.38
2023-03-12T16:25:41.946Z,100242.97
2023-03-12T16:28:13.935Z,100239.38
2023-03-12T16:30:40.365Z,100246.81
2023-03-12T16:33:09.172Z,100264.13
2023-03-12T16:35:36.318Z,100256.44
2023-03-12T16:38:03.556Z,100245.03
2023-03-12T16:40:34.268Z,100243.94
2023-03-12T16:43:06.773Z,100245.50
2023-03-12T16:45:37.129Z,100250.22
2023-03-12T16:48:06.585Z,100246.25
2023-03-12T16:50:33.037Z,100252.84
2023-03-12T16:52:59.848Z,100258.03
2023-03-12T16:55:29.496Z,100249.97
2023-03-12T16:57:59.223Z,100253.59
2023-03-12T17:00:32.689Z,100254.66
2023-03-12T17:02:59.540Z,100258.25
2023-03-12T17:05:27.830Z,100264.91
2023-03-12T17:07:55.508Z,100261.03
2023-03-12T17:10:22.820Z,100269.47
2023-03-12T17:12:49.933Z,100274.75
2023-03-12T17:15:25.794Z,100265.25
2023-03-12T17:17:55.596Z,100269.69
2023-03-12T17:20:24.147Z,100262.25
2023-03-12T17:22:50.792Z,100263.69
2023-03-12T17:25:22.144Z,100268.88
2023-03-12T17:27:48.890Z,100265.25
2023-03-12T17:30:15.390Z,100269.69
2023-03-12T17:32:42.078Z,100265.84
2023-03-12T17:35:08.793Z,100265.25
2023-03-12T17:37:36.333Z,100283.63
2023-03-12T17:40:08.083Z,100282.69
2023-03-12T17:42:35.541Z,100287.00
2023-03-12T17:45:02.937Z,100282.69
2023-03-12T17:47:30.879Z,100279.09
2023-03-12T17:49:57.851Z,100284.97
2023-03-12T17:52:24.970Z,100286.53
2023-03-12T17:54:51.595Z,100292.91
2023-03-12T17:57:18.067Z,100298.91
2023-03-12T17:59:44.520Z,100291.34
2023-03-12T18:02:14.209Z,100286.03
2023-03-12T18:04:40.647Z,100293.47
2023-03-12T18:07:07.143Z,100297.84
2023-03-12T18:09:33.689Z,100304.28
2023-03-12T18:12:00.169Z,100307.31
2023-03-12T18:14:26.674Z,100317.50
2023-03-12T18:16:53.103Z,100316.91
2023-03-12T18:19:19.538Z,100320.13
2023-03-12T18:21:45.929Z,100329.63
2023-03-12T18:24:14.476Z,100328.75
2023-03-12T18:26:41.225Z,100329.38
2023-03-12T18:29:07.691Z,100330.22
2023-03-12T18:31:34.418Z,100321.34
2023-03-12T18:34:00.832Z,100319.91
2023-03-12T18:36:27.268Z,100332.00
2023-03-12T18:38:53.663Z,100322.88
2023-03-12T18:41:20.101Z,100329.25
2023-03-12T18:43:46.518Z,100326.75
2023-03-12T18:46:13.660Z,100324.22
2023-03-12T18:48:41.799Z,100336.94
2023-03-12T18:51:10.093Z,100331.66
2023-03-12T18:53:36.494Z,100335.25
2023-03-12T18:56:02.923Z,100346.50
2023-03-12T18:58:29.349Z,100341.72
2023-03-12T19:00:57.734Z,100353.22
2023-03-12T19:03:25.644Z,100349.25
2023-03-12T19:06:13.654Z,100351.28
2023-03-12T19:08:40.839Z,100347.56
2023-03-12T19:11:10.078Z,100338.28
2023-03-12T19:13:36.778Z,100340.94
2023-03-12T19:16:08.223Z,100331.44
2023-03-12T19:18:35.646Z,100329.59
2023-03-12T19:21:02.440Z,100333.06
2023-03-12T19:23:29.465Z,100336.50
2023-03-12T19:25:55.873Z,100339.13
2023-03-12T19:28:22.529Z,100338.16
2023-03-12T19:30:49.067Z,100331.88
2023-03-12T19:33:15.581Z,100329.22
2023-03-12T19:35:42.637Z,100331.84
2023-03-12T19:38:09.099Z,100327.25
2023-03-12T19:40:35.540Z,100324.34
2023-03-12T19:43:02.769Z,100330.78
2023-03-12T19:45:29.455Z,100316.84
2023-03-12T19:47:56.010Z,100311.19
2023-03-12T19:50:23.778Z,100309.97
2023-03-12T19:52:50.282Z,100310.44
2023-03-12T19:55:16.971Z,100311.13
2023-03-12T19:57:43.413Z,100307.38
2023-03-12T20:00:12.113Z,100312.25
2023-03-12T20:02:39.262Z,100306.63
2023-03-12T20:05:06.998Z,100304.56
2023-03-12T20:07:33.375Z,100307.97
2023-03-12T20:09:59.893Z,100301.25
2023-03-12T20:12:26.491Z,100303.41
2023-03-12T20:14:52.954Z,100283.50
2023-03-12T20:17:19.362Z,100276.81
2023-03-12T20:19:45.789Z,100283.19
2023-03-12T20:22:12.418Z,100279.22
2023-03-12T20:24:38.870Z,100279.09
2023-03-12T20:27:05.400Z,100288.84
2023-03-12T20:29:31.849Z,100282.13
2023-03-12T20:31:58.293Z,100277.09
2023-03-12T20:34:24.937Z,100270.09
2023-03-12T20:36:51.399Z,100265.06
2023-03-12T20:39:17.944Z,100270.19
2023-03-12T20:41:44.317Z,100257.72
2023-03-12T20:44:10.826Z,100263.91
2023-03-12T20:46:37.276Z,100264.56
2023-03-12T20:49:03.701Z,100263.13
2023-03-12T20:51:30.103Z,100250.66
2023-03-12T20:53:57.923Z,100252.53
2023-03-12T20:56:24.348Z,100253.00
2023-03-12T20:58:50.724Z,100247.94
2023-03-12T21:01:17.139Z,100247.34
2023-03-12T21:03:43.638Z,100235.72
2023-03-12T21:06:10.035Z,100235.09
2023-03-12T21:08:36.412Z,100226.25
2023-03-12T21:11:06.903Z,100228.38
2023-03-12T21:13:33.335Z,100222.47
2023-03-12T21:15:59.780Z,100215.75
2023-03-12T21:18:26.352Z,100215.34
2023-03-12T21:20:53.043Z,100206.72
2023-03-12T21:23:19.531Z,100206.97
2023-03-12T21:25:46.127Z,100208.00
2023-03-12T21:28:15.019Z,100205.47
2023-03-12T21:30:41.496Z,100196.84
2023-03-12T21:33:07.914Z,100189.91
2023-03-12T21:35:34.463Z,100199.44
2023-03-12T21:38:02.545Z,100197.75
2023-03-12T21:40:29.097Z,100196.06
2023-03-12T21:42:55.552Z,100193.78
2023-03-12T21:45:22.139Z,100185.06
2023-03-12T21:47:48.573Z,100185.69
2023-03-12T21:50:14.963Z,100179.13
2023-03-12T21:52:47.609Z,100181.25
2023-03-12T21:55:14.618Z,100176.63
2023-03-12T21:57:41.068Z,100171.31
2023-03-12T22:00:12.816Z,100179.56
2023-03-12T22:02:44.848Z,100174.53
2023-03-12T22:05:12.326Z,100163.53
2023-03-12T22:07:38.984Z,100148.09
2023-03-12T22:10:07.320Z,100150.66
2023-03-12T22:12:33.792Z,100138.19
2023-03-12T22:15:00.295Z,100134.38
2023-03-12T22:17:27.659Z,100144.50
2023-03-12T22:19:54.537Z,100128.88
2023-03-12T22:22:20.928Z,100131.41
2023-03-12T22:24:47.333Z,100126.31
2023-03-12T22:27:13.794Z,100124.53
2023-03-12T22:29:40.253Z,100124.91
2023-03-12T22:32:06.793Z,100112.41
2023-03-12T22:34:33.927Z,100110.50
2023-03-12T22:37:00.419Z,100107.53
2023-03-12T22:39:26.784Z,100114.69
2023-03-12T22:41:53.622Z,100102.63
2023-03-12T22:44:20.122Z,100101.78
2023-03-12T22:46:46.591Z,100092.69
2023-03-12T22:49:14.817Z,100096.53
2023-03-12T22:51:41.233Z,100091.25
2023-03-12T22:54:07.664Z,100092.78
2023-03-12T22:56:34.205Z,100086.44
2023-03-12T22:59:00.661Z,100091.81
2023-03-12T23:01:27.155Z,100090.41
2023-03-12T23:03:53.735Z,100087.38
2023-03-12T23:06:25.819Z,100082.03
2023-03-12T23:08:54.747Z,100079.28
2023-03-12T23:11:21.513Z,100080.06
2023-03-12T23:13:49.706Z,100077.47
2023-03-12T23:16:19.127Z,100066.38
2023-03-12T23:18:46.257Z,100070.94
2023-03-12T23:21:15.846Z,100070.84
2023-03-12T23:23:43.545Z,100068.84
2023-03-12T23:26:26.508Z,100067.31
2023-03-12T23:28:58.284Z,100061.31
2023-03-12T23:31:27.413Z,100057.50
2023-03-12T23:33:54.370Z,100046.97
2023-03-12T23:36:23.263Z,100059.03
2023-03-12T23:38:50.566Z,100047.81
2023-03-12T23:41:19.880Z,100044.13
2023-03-12T23:43:47.040Z,100040.44
2023-03-12T23:46:14.484Z,100038.66
2023-03-12T23:48:41.064Z,100029.44
2023-03-12T23:51:13.231Z,100018.94
2023-03-12T23:53:41.067Z,100019.91
2023-03-12T23:56:10.374Z,100007.94
2023-03-12T23:58:37.118Z,100006.38
